sensor_id;sensor_type;location;lat;lon;timestamp;pressure;altitude;pressure_sealevel;temperature;humidity
51526;BME280;37611;51.794;21.590;2023-05-11T00:01:35;100537.90;;;7.76;50.97
51526;BME280;37611;51.794;21.590;2023-05-11T00:05:37;100536.53;;;7.69;51.30
51526;BME280;37611;51.794;21.590;2023-05-11T00:09:38;100534.71;;;7.61;51.41
51526;BME280;37611;51.794;21.590;2023-05-11T00:13:42;100534.17;;;7.52;51.65
51526;BME280;37611;51.794;21.590;2023-05-11T00:17:43;100530.31;;;7.44;51.84
51526;BME280;37611;51.794;21.590;2023-05-11T00:21:45;100526.39;;;7.33;52.66
51526;BME280;37611;51.794;21.590;2023-05-11T00:25:47;100528.13;;;7.25;52.90
51526;BME280;37611;51.794;21.590;2023-05-11T00:29:49;100529.76;;;7.17;52.83
51526;BME280;37611;51.794;21.590;2023-05-11T00:33:51;100525.99;;;7.11;53.22
51526;BME280;37611;51.794;21.590;2023-05-11T00:37:54;100525.70;;;7.06;53.70
51526;BME280;37611;51.794;21.590;2023-05-11T00:41:57;100521.17;;;6.99;53.66
51526;BME280;37611;51.794;21.590;2023-05-11T00:46:00;100518.02;;;6.93;53.98
51526;BME280;37611;51.794;21.590;2023-05-11T00:50:02;100516.39;;;6.87;54.12
51526;BME280;37611;51.794;21.590;2023-05-11T00:54:04;100513.52;;;6.81;53.97
51526;BME280;37611;51.794;21.590;2023-05-11T00:58:06;100507.05;;;6.77;55.11
51526;BME280;37611;51.794;21.590;2023-05-11T01:02:08;100510.45;;;6.73;54.22
51526;BME280;37611;51.794;21.590;2023-05-11T01:11:01;100510.77;;;6.64;55.06
51526;BME280;37611;51.794;21.590;2023-05-11T01:14:56;100511.05;;;6.60;55.29
51526;BME280;37611;51.794;21.590;2023-05-11T01:19:11;100512.58;;;6.58;55.21
51526;BME280;37611;51.794;21.590;2023-05-11T01:23:20;100511.52;;;6.56;55.25
51526;BME280;37611;51.794;21.590;2023-05-11T01:31:33;100510.75;;;6.57;55.11
51526;BME280;37611;51.794;21.590;2023-05-11T01:35:38;100507.84;;;6.57;55.00
51526;BME280;37611;51.794;21.590;2023-05-11T01:39:49;100506.66;;;6.56;55.34
51526;BME280;37611;51.794;21.590;2023-05-11T01:43:58;100504.53;;;6.56;55.15
51526;BME280;37611;51.794;21.590;2023-05-11T01:48:04;100501.63;;;6.56;55.36
51526;BME280;37611;51.794;21.590;2023-05-11T01:52:07;100498.13;;;6.54;55.04
51526;BME280;37611;51.794;21.590;2023-05-11T01:56:10;100498.57;;;6.53;55.32
51526;BME280;37611;51.794;21.590;2023-05-11T02:00:15;100499.01;;;6.51;55.24
51526;BME280;37611;51.794;21.590;2023-05-11T02:04:18;100500.36;;;6.50;55.48
51526;BME280;37611;51.794;21.590;2023-05-11T02:08:21;100498.92;;;6.48;55.38
51526;BME280;37611;51.794;21.590;2023-05-11T02:12:26;100498.92;;;6.46;55.37
51526;BME280;37611;51.794;21.590;2023-05-11T02:16:30;100500.01;;;6.43;55.69
51526;BME280;37611;51.794;21.590;2023-05-11T02:20:33;100503.88;;;6.40;55.51
51526;BME280;37611;51.794;21.590;2023-05-11T02:24:36;100506.33;;;6.37;56.12
51526;BME280;37611;51.794;21.590;2023-05-11T02:28:39;100506.34;;;6.35;55.82
51526;BME280;37611;51.794;21.590;2023-05-11T02:32:47;100508.86;;;6.31;56.03
51526;BME280;37611;51.794;21.590;2023-05-11T02:36:53;100510.31;;;6.28;56.01
51526;BME280;37611;51.794;21.590;2023-05-11T02:40:58;100511.66;;;6.24;55.97
51526;BME280;37611;51.794;21.590;2023-05-11T02:45:04;100511.57;;;6.18;56.31
51526;BME280;37611;51.794;21.590;2023-05-11T02:49:09;100512.84;;;6.12;56.51
51526;BME280;37611;51.794;21.590;2023-05-11T02:53:14;100515.77;;;6.08;56.58
51526;BME280;37611;51.794;21.590;2023-05-11T02:57:16;100514.66;;;6.04;56.84
51526;BME280;37611;51.794;21.590;2023-05-11T03:01:19;100519.90;;;6.01;57.09
51526;BME280;37611;51.794;21.590;2023-05-11T03:05:21;100514.34;;;5.99;57.37
51526;BME280;37611;51.794;21.590;2023-05-11T03:09:22;100515.67;;;5.97;57.50
51526;BME280;37611;51.794;21.590;2023-05-11T03:13:24;100518.09;;;5.97;57.82
51526;BME280;37611;51.794;21.590;2023-05-11T03:17:28;100518.61;;;6.00;57.69
51526;BME280;37611;51.794;21.590;2023-05-11T03:21:31;100517.29;;;6.06;57.92
51526;BME280;37611;51.794;21.590;2023-05-11T03:25:34;100518.63;;;6.16;58.14
51526;BME280;37611;51.794;21.590;2023-05-11T03:29:38;100524.68;;;6.29;58.00
51526;BME280;37611;51.794;21.590;2023-05-11T03:33:43;100529.64;;;6.44;58.11
51526;BME280;37611;51.794;21.590;2023-05-11T03:37:47;100532.52;;;6.62;58.46
51526;BME280;37611;51.794;21.590;2023-05-11T03:41:51;100535.38;;;6.82;58.63
51526;BME280;37611;51.794;21.590;2023-05-11T03:45:54;100539.84;;;7.01;58.77
51526;BME280;37611;51.794;21.590;2023-05-11T03:49:57;100543.03;;;7.21;58.09
51526;BME280;37611;51.794;21.590;2023-05-11T03:54:00;100539.10;;;7.38;57.97
51526;BME280;37611;51.794;21.590;2023-05-11T03:58:08;100542.77;;;7.60;57.84
51526;BME280;37611;51.794;21.590;2023-05-11T04:02:11;100545.08;;;7.87;57.29
51526;BME280;37611;51.794;21.590;2023-05-11T04:06:14;100547.45;;;8.18;57.01
51526;BME280;37611;51.794;21.590;2023-05-11T04:10:16;100549.06;;;8.52;56.60
51526;BME280;37611;51.794;21.590;2023-05-11T04:14:18;100549.02;;;8.91;55.94
51526;BME280;37611;51.794;21.590;2023-05-11T04:18:21;100551.17;;;9.34;55.14
51526;BME280;37611;51.794;21.590;2023-05-11T04:22:22;100549.59;;;9.66;54.55
51526;BME280;37611;51.794;21.590;2023-05-11T04:26:24;100548.67;;;10.07;54.02
51526;BME280;37611;51.794;21.590;2023-05-11T04:30:26;100553.81;;;10.60;53.43
51526;BME280;37611;51.794;21.590;2023-05-11T04:34:28;100552.04;;;11.02;52.00
51526;BME280;37611;51.794;21.590;2023-05-11T04:38:30;100554.34;;;11.41;51.15
51526;BME280;37611;51.794;21.590;2023-05-11T04:42:31;100553.16;;;11.85;50.01
51526;BME280;37611;51.794;21.590;2023-05-11T04:46:33;100555.02;;;12.26;48.47
51526;BME280;37611;51.794;21.590;2023-05-11T04:50:35;100554.33;;;12.57;46.93
51526;BME280;37611;51.794;21.590;2023-05-11T04:54:37;100554.42;;;13.00;46.07
51526;BME280;37611;51.794;21.590;2023-05-11T04:58:39;100553.52;;;13.43;45.49
51526;BME280;37611;51.794;21.590;2023-05-11T05:02:41;100554.95;;;13.82;45.12
51526;BME280;37611;51.794;21.590;2023-05-11T05:06:43;100553.75;;;14.08;43.41
51526;BME280;37611;51.794;21.590;2023-05-11T05:10:46;100558.88;;;14.12;43.08
51526;BME280;37611;51.794;21.590;2023-05-11T05:14:47;100563.33;;;14.19;42.68
51526;BME280;37611;51.794;21.590;2023-05-11T05:18:49;100568.48;;;14.28;41.47
51526;BME280;37611;51.794;21.590;2023-05-11T05:22:51;100570.67;;;14.14;42.03
51526;BME280;37611;51.794;21.590;2023-05-11T05:26:53;100571.33;;;14.25;42.33
51526;BME280;37611;51.794;21.590;2023-05-11T05:30:54;100573.42;;;14.18;41.60
51526;BME280;37611;51.794;21.590;2023-05-11T05:34:56;100570.52;;;13.89;41.74
51526;BME280;37611;51.794;21.590;2023-05-11T05:38:58;100568.02;;;13.89;42.20
51526;BME280;37611;51.794;21.590;2023-05-11T05:42:59;100572.30;;;14.04;42.06
51526;BME280;37611;51.794;21.590;2023-05-11T05:47:01;100574.00;;;13.99;41.45
51526;BME280;37611;51.794;21.590;2023-05-11T05:51:03;100575.39;;;13.82;41.98
51526;BME280;37611;51.794;21.590;2023-05-11T05:55:05;100578.63;;;13.99;42.16
51526;BME280;37611;51.794;21.590;2023-05-11T05:59:06;100581.08;;;14.02;41.45
51526;BME280;37611;51.794;21.590;2023-05-11T06:03:13;100580.67;;;13.92;41.68
51526;BME280;37611;51.794;21.590;2023-05-11T06:07:15;100573.70;;;13.92;41.75
51526;BME280;37611;51.794;21.590;2023-05-11T06:11:16;100577.89;;;14.10;41.72
51526;BME280;37611;51.794;21.590;2023-05-11T06:15:18;100577.06;;;14.37;41.08
51526;BME280;37611;51.794;21.590;2023-05-11T06:19:20;100581.34;;;14.43;40.93
51526;BME280;37611;51.794;21.590;2023-05-11T06:23:21;100581.75;;;14.59;40.54
51526;BME280;37611;51.794;21.590;2023-05-11T06:27:23;100581.83;;;14.77;40.29
51526;BME280;37611;51.794;21.590;2023-05-11T06:31:25;100587.13;;;14.98;39.75
51526;BME280;37611;51.794;21.590;2023-05-11T06:35:27;100586.17;;;14.94;39.45
51526;BME280;37611;51.794;21.590;2023-05-11T06:39:30;100592.02;;;15.05;38.46
51526;BME280;37611;51.794;21.590;2023-05-11T06:43:32;100588.96;;;15.04;38.31
51526;BME280;37611;51.794;21.590;2023-05-11T06:47:34;100586.83;;;15.18;37.25
51526;BME280;37611;51.794;21.590;2023-05-11T06:51:36;100585.51;;;15.14;37.16
51526;BME280;37611;51.794;21.590;2023-05-11T06:55:37;100582.80;;;15.23;36.73
51526;BME280;37611;51.794;21.590;2023-05-11T06:59:39;100583.40;;;15.34;36.70
51526;BME280;37611;51.794;21.590;2023-05-11T07:03:41;100588.94;;;15.55;36.11
51526;BME280;37611;51.794;21.590;2023-05-11T07:07:42;100591.08;;;15.63;35.48
51526;BME280;37611;51.794;21.590;2023-05-11T07:11:44;100590.22;;;15.63;35.15
51526;BME280;37611;51.794;21.590;2023-05-11T07:15:46;100588.34;;;15.59;35.00
51526;BME280;37611;51.794;21.590;2023-05-11T07:19:47;100590.54;;;15.73;34.66
51526;BME280;37611;51.794;21.590;2023-05-11T07:23:51;100589.63;;;15.92;34.23
51526;BME280;37611;51.794;21.590;2023-05-11T07:27:53;100590.70;;;15.99;33.66
51526;BME280;37611;51.794;21.590;2023-05-11T07:31:55;100589.52;;;16.03;33.50
51526;BME280;37611;51.794;21.590;2023-05-11T07:35:56;100586.45;;;16.03;32.82
51526;BME280;37611;51.794;21.590;2023-05-11T07:39:59;100579.66;;;16.11;33.76
51526;BME280;37611;51.794;21.590;2023-05-11T07:44:01;100580.41;;;16.39;33.39
51526;BME280;37611;51.794;21.590;2023-05-11T07:48:02;100584.73;;;16.52;31.79
51526;BME280;37611;51.794;21.590;2023-05-11T07:52:04;100589.33;;;16.49;31.74
51526;BME280;37611;51.794;21.590;2023-05-11T07:56:06;100588.39;;;16.57;31.29
51526;BME280;37611;51.794;21.590;2023-05-11T08:00:09;100581.51;;;16.53;30.83
51526;BME280;37611;51.794;21.590;2023-05-11T08:04:11;100582.17;;;16.59;30.29
51526;BME280;37611;51.794;21.590;2023-05-11T08:08:13;100575.80;;;16.58;29.63
51526;BME280;37611;51.794;21.590;2023-05-11T08:12:14;100585.70;;;16.50;29.32
51526;BME280;37611;51.794;21.590;2023-05-11T08:16:16;100576.77;;;16.42;29.74
51526;BME280;37611;51.794;21.590;2023-05-11T08:20:18;100576.23;;;16.48;30.22
51526;BME280;37611;51.794;21.590;2023-05-11T08:24:20;100579.02;;;16.62;29.62
51526;BME280;37611;51.794;21.590;2023-05-11T08:28:22;100577.54;;;16.59;29.32
51526;BME280;37611;51.794;21.590;2023-05-11T08:32:23;100579.36;;;16.65;29.62
51526;BME280;37611;51.794;21.590;2023-05-11T08:36:25;100577.73;;;16.64;29.44
51526;BME280;37611;51.794;21.590;2023-05-11T08:40:29;100583.20;;;16.58;29.42
51526;BME280;37611;51.794;21.590;2023-05-11T08:44:32;100571.20;;;16.52;29.89
51526;BME280;37611;51.794;21.590;2023-05-11T08:48:35;100577.66;;;16.54;29.51
51526;BME280;37611;51.794;21.590;2023-05-11T08:52:38;100575.64;;;16.44;29.70
51526;BME280;37611;51.794;21.590;2023-05-11T08:56:42;100564.33;;;16.48;29.82
51526;BME280;37611;51.794;21.590;2023-05-11T09:00:44;100561.44;;;16.62;30.10
51526;BME280;37611;51.794;21.590;2023-05-11T09:04:48;100565.58;;;16.77;30.34
51526;BME280;37611;51.794;21.590;2023-05-11T09:08:52;100571.62;;;16.96;30.40
51526;BME280;37611;51.794;21.590;2023-05-11T09:12:54;100564.02;;;17.06;30.16
51526;BME280;37611;51.794;21.590;2023-05-11T09:16:56;100568.52;;;17.20;30.09
51526;BME280;37611;51.794;21.590;2023-05-11T09:21:00;100563.89;;;17.13;29.58
51526;BME280;37611;51.794;21.590;2023-05-11T09:25:02;100571.67;;;17.10;29.32
51526;BME280;37611;51.794;21.590;2023-05-11T09:29:04;100573.13;;;17.03;29.47
51526;BME280;37611;51.794;21.590;2023-05-11T09:33:06;100563.23;;;16.98;29.44
51526;BME280;37611;51.794;21.590;2023-05-11T09:37:15;100565.48;;;17.01;30.25
51526;BME280;37611;51.794;21.590;2023-05-11T09:41:19;100561.83;;;16.99;30.57
51526;BME280;37611;51.794;21.590;2023-05-11T09:45:40;100549.42;;;16.99;30.72
51526;BME280;37611;51.794;21.590;2023-05-11T09:49:43;100545.98;;;17.07;31.53
51526;BME280;37611;51.794;21.590;2023-05-11T09:53:45;100547.41;;;17.23;30.80
51526;BME280;37611;51.794;21.590;2023-05-11T09:57:58;100542.84;;;17.21;30.58
51526;BME280;37611;51.794;21.590;2023-05-11T10:02:24;100543.24;;;17.26;30.96
51526;BME280;37611;51.794;21.590;2023-05-11T10:06:26;100545.17;;;17.26;30.80
51526;BME280;37611;51.794;21.590;2023-05-11T10:10:33;100537.99;;;17.24;31.03
51526;BME280;37611;51.794;21.590;2023-05-11T10:14:35;100533.17;;;17.24;31.10
51526;BME280;37611;51.794;21.590;2023-05-11T10:18:37;100530.02;;;17.33;30.64
51526;BME280;37611;51.794;21.590;2023-05-11T10:22:41;100532.70;;;17.22;30.72
51526;BME280;37611;51.794;21.590;2023-05-11T10:26:43;100533.54;;;17.36;30.75
51526;BME280;37611;51.794;21.590;2023-05-11T10:30:46;100527.83;;;17.36;30.26
51526;BME280;37611;51.794;21.590;2023-05-11T10:34:48;100531.48;;;17.41;30.44
51526;BME280;37611;51.794;21.590;2023-05-11T10:38:52;100523.63;;;17.46;30.36
51526;BME280;37611;51.794;21.590;2023-05-11T10:47:26;100505.66;;;17.51;30.69
51526;BME280;37611;51.794;21.590;2023-05-11T11:00:17;100502.73;;;17.89;31.26
51526;BME280;37611;51.794;21.590;2023-05-11T11:04:20;100502.14;;;17.95;30.76
51526;BME280;37611;51.794;21.590;2023-05-11T11:08:22;100501.40;;;17.95;30.76
51526;BME280;37611;51.794;21.590;2023-05-11T11:12:25;100499.24;;;17.88;30.79
51526;BME280;37611;51.794;21.590;2023-05-11T11:16:28;100493.92;;;17.87;30.35
51526;BME280;37611;51.794;21.590;2023-05-11T11:20:48;100495.92;;;17.88;30.60
51526;BME280;37611;51.794;21.590;2023-05-11T11:24:50;100486.44;;;17.90;30.03
51526;BME280;37611;51.794;21.590;2023-05-11T11:37:14;100484.40;;;18.04;30.99
51526;BME280;37611;51.794;21.590;2023-05-11T11:41:28;100486.13;;;18.13;30.97
51526;BME280;37611;51.794;21.590;2023-05-11T11:45:31;100492.46;;;18.16;29.97
51526;BME280;37611;51.794;21.590;2023-05-11T11:49:33;100486.58;;;18.05;30.15
51526;BME280;37611;51.794;21.590;2023-05-11T11:57:46;100484.90;;;18.26;30.31
51526;BME280;37611;51.794;21.590;2023-05-11T12:01:52;100495.92;;;18.35;29.78
51526;BME280;37611;51.794;21.590;2023-05-11T12:05:59;100485.52;;;18.25;29.61
51526;BME280;37611;51.794;21.590;2023-05-11T12:10:02;100487.72;;;18.16;29.94
51526;BME280;37611;51.794;21.590;2023-05-11T12:14:05;100482.92;;;18.20;29.83
51526;BME280;37611;51.794;21.590;2023-05-11T12:18:20;100479.61;;;18.28;29.53
51526;BME280;37611;51.794;21.590;2023-05-11T12:22:23;100489.00;;;18.27;29.38
51526;BME280;37611;51.794;21.590;2023-05-11T12:26:26;100484.91;;;18.27;29.29
51526;BME280;37611;51.794;21.590;2023-05-11T12:30:30;100482.88;;;18.23;29.32
51526;BME280;37611;51.794;21.590;2023-05-11T12:34:32;100481.20;;;18.20;28.34
51526;BME280;37611;51.794;21.590;2023-05-11T12:38:42;100480.41;;;18.19;28.91
51526;BME280;37611;51.794;21.590;2023-05-11T12:42:52;100480.21;;;18.19;29.29
51526;BME280;37611;51.794;21.590;2023-05-11T12:46:54;100479.28;;;18.20;28.60
51526;BME280;37611;51.794;21.590;2023-05-11T12:50:55;100465.94;;;18.10;28.61
51526;BME280;37611;51.794;21.590;2023-05-11T12:54:58;100462.88;;;18.10;28.61
51526;BME280;37611;51.794;21.590;2023-05-11T12:59:00;100463.83;;;18.21;29.09
51526;BME280;37611;51.794;21.590;2023-05-11T13:03:02;100465.70;;;18.23;29.03
51526;BME280;37611;51.794;21.590;2023-05-11T13:07:04;100463.10;;;18.17;28.32
51526;BME280;37611;51.794;21.590;2023-05-11T13:15:19;100447.23;;;18.12;29.32
51526;BME280;37611;51.794;21.590;2023-05-11T13:19:28;100454.04;;;18.27;29.43
51526;BME280;37611;51.794;21.590;2023-05-11T13:23:30;100441.30;;;18.31;28.70
51526;BME280;37611;51.794;21.590;2023-05-11T13:27:32;100438.28;;;18.37;28.93
51526;BME280;37611;51.794;21.590;2023-05-11T13:31:44;100440.45;;;18.44;28.10
51526;BME280;37611;51.794;21.590;2023-05-11T13:35:46;100430.70;;;18.32;28.13
51526;BME280;37611;51.794;21.590;2023-05-11T13:39:48;100432.41;;;18.34;28.28
51526;BME280;37611;51.794;21.590;2023-05-11T13:43:49;100433.20;;;18.36;28.59
51526;BME280;37611;51.794;21.590;2023-05-11T13:47:52;100427.63;;;18.31;28.67
51526;BME280;37611;51.794;21.590;2023-05-11T13:51:55;100426.36;;;18.30;28.93
51526;BME280;37611;51.794;21.590;2023-05-11T13:55:57;100430.79;;;18.31;28.77
51526;BME280;37611;51.794;21.590;2023-05-11T13:59:58;100432.08;;;18.34;28.81
51526;BME280;37611;51.794;21.590;2023-05-11T14:04:00;100424.60;;;18.36;28.79
51526;BME280;37611;51.794;21.590;2023-05-11T14:08:03;100423.52;;;18.39;29.07
51526;BME280;37611;51.794;21.590;2023-05-11T14:12:05;100425.04;;;18.34;28.44
51526;BME280;37611;51.794;21.590;2023-05-11T14:16:07;100425.55;;;18.27;28.64
51526;BME280;37611;51.794;21.590;2023-05-11T14:20:11;100416.29;;;18.20;28.90
51526;BME280;37611;51.794;21.590;2023-05-11T14:24:13;100421.79;;;18.27;28.76
51526;BME280;37611;51.794;21.590;2023-05-11T14:28:14;100413.23;;;18.20;28.62
51526;BME280;37611;51.794;21.590;2023-05-11T14:32:17;100406.77;;;18.16;28.86
51526;BME280;37611;51.794;21.590;2023-05-11T14:36:19;100406.56;;;18.21;29.06
51526;BME280;37611;51.794;21.590;2023-05-11T14:40:21;100399.85;;;18.21;28.90
51526;BME280;37611;51.794;21.590;2023-05-11T14:44:23;100401.88;;;18.22;28.98
51526;BME280;37611;51.794;21.590;2023-05-11T14:48:25;100401.73;;;18.17;28.66
51526;BME280;37611;51.794;21.590;2023-05-11T14:52:26;100400.88;;;18.16;29.19
51526;BME280;37611;51.794;21.590;2023-05-11T14:56:28;100410.62;;;18.27;29.05
51526;BME280;37611;51.794;21.590;2023-05-11T15:00:30;100412.33;;;18.25;28.37
51526;BME280;37611;51.794;21.590;2023-05-11T15:04:33;100403.33;;;18.16;28.23
51526;BME280;37611;51.794;21.590;2023-05-11T15:08:34;100406.30;;;18.14;28.86
51526;BME280;37611;51.794;21.590;2023-05-11T15:12:37;100405.80;;;18.15;28.88
51526;BME280;37611;51.794;21.590;2023-05-11T15:16:38;100398.70;;;18.10;29.05
51526;BME280;37611;51.794;21.590;2023-05-11T15:20:41;100400.41;;;18.04;29.27
51526;BME280;37611;51.794;21.590;2023-05-11T15:24:43;100401.86;;;18.04;29.57
51526;BME280;37611;51.794;21.590;2023-05-11T15:28:44;100403.37;;;18.03;29.42
51526;BME280;37611;51.794;21.590;2023-05-11T15:32:47;100398.02;;;17.99;29.20
51526;BME280;37611;51.794;21.590;2023-05-11T15:36:48;100400.52;;;17.99;29.33
51526;BME280;37611;51.794;21.590;2023-05-11T15:40:50;100400.21;;;17.97;29.21
51526;BME280;37611;51.794;21.590;2023-05-11T15:44:52;100401.80;;;17.91;28.95
51526;BME280;37611;51.794;21.590;2023-05-11T15:48:54;100404.20;;;17.86;28.94
51526;BME280;37611;51.794;21.590;2023-05-11T15:52:55;100399.88;;;17.86;29.30
51526;BME280;37611;51.794;21.590;2023-05-11T15:56:57;100407.33;;;17.88;29.46
51526;BME280;37611;51.794;21.590;2023-05-11T16:00:59;100408.66;;;17.86;29.01
51526;BME280;37611;51.794;21.590;2023-05-11T16:05:01;100412.44;;;17.80;29.21
51526;BME280;37611;51.794;21.590;2023-05-11T16:09:03;100411.02;;;17.75;29.07
51526;BME280;37611;51.794;21.590;2023-05-11T16:13:05;100406.89;;;17.69;28.93
51526;BME280;37611;51.794;21.590;2023-05-11T16:17:06;100406.19;;;17.64;29.27
51526;BME280;37611;51.794;21.590;2023-05-11T16:21:08;100405.23;;;17.62;29.32
51526;BME280;37611;51.794;21.590;2023-05-11T16:25:10;100402.30;;;17.57;28.98
51526;BME280;37611;51.794;21.590;2023-05-11T16:29:11;100402.39;;;17.52;29.20
51526;BME280;37611;51.794;21.590;2023-05-11T16:33:13;100405.50;;;17.45;29.19
51526;BME280;37611;51.794;21.590;2023-05-11T16:37:15;100399.72;;;17.40;29.18
51526;BME280;37611;51.794;21.590;2023-05-11T16:41:17;100408.52;;;17.38;29.64
51526;BME280;37611;51.794;21.590;2023-05-11T16:45:19;100404.88;;;17.34;29.73
51526;BME280;37611;51.794;21.590;2023-05-11T16:49:22;100404.95;;;17.29;29.87
51526;BME280;37611;51.794;21.590;2023-05-11T16:53:23;100407.07;;;17.23;29.64
51526;BME280;37611;51.794;21.590;2023-05-11T16:57:27;100402.23;;;17.16;30.03
51526;BME280;37611;51.794;21.590;2023-05-11T17:01:29;100401.41;;;17.11;30.62
51526;BME280;37611;51.794;21.590;2023-05-11T17:05:31;100401.11;;;17.07;31.17
51526;BME280;37611;51.794;21.590;2023-05-11T17:09:32;100405.80;;;17.00;31.59
51526;BME280;37611;51.794;21.590;2023-05-11T17:13:34;100409.97;;;16.92;32.04
51526;BME280;37611;51.794;21.590;2023-05-11T17:17:36;100416.21;;;16.83;32.45
51526;BME280;37611;51.794;21.590;2023-05-11T17:21:38;100420.55;;;16.71;32.82
51526;BME280;37611;51.794;21.590;2023-05-11T17:25:40;100425.10;;;16.59;32.91
51526;BME280;37611;51.794;21.590;2023-05-11T17:29:42;100426.47;;;16.48;33.09
51526;BME280;37611;51.794;21.590;2023-05-11T17:33:44;100426.45;;;16.36;33.38
51526;BME280;37611;51.794;21.590;2023-05-11T17:37:46;100428.20;;;16.24;33.68
51526;BME280;37611;51.794;21.590;2023-05-11T17:41:48;100427.34;;;16.12;34.00
51526;BME280;37611;51.794;21.590;2023-05-11T17:45:49;100431.11;;;16.01;34.17
51526;BME280;37611;51.794;21.590;2023-05-11T17:49:51;100434.59;;;15.90;34.27
51526;BME280;37611;51.794;21.590;2023-05-11T17:53:53;100435.94;;;15.77;34.68
51526;BME280;37611;51.794;21.590;2023-05-11T17:57:56;100439.70;;;15.64;35.05
51526;BME280;37611;51.794;21.590;2023-05-11T18:01:58;100443.42;;;15.51;35.20
51526;BME280;37611;51.794;21.590;2023-05-11T18:06:00;100443.95;;;15.37;35.40
51526;BME280;37611;51.794;21.590;2023-05-11T18:10:02;100443.06;;;15.23;35.78
51526;BME280;37611;51.794;21.590;2023-05-11T18:14:04;100444.80;;;15.07;36.14
51526;BME280;37611;51.794;21.590;2023-05-11T18:18:05;100455.02;;;14.93;36.37
51526;BME280;37611;51.794;21.590;2023-05-11T18:22:07;100461.77;;;14.79;36.65
51526;BME280;37611;51.794;21.590;2023-05-11T18:26:09;100465.52;;;14.65;37.11
51526;BME280;37611;51.794;21.590;2023-05-11T18:30:12;100467.70;;;14.51;37.05
51526;BME280;37611;51.794;21.590;2023-05-11T18:34:14;100469.43;;;14.38;37.29
51526;BME280;37611;51.794;21.590;2023-05-11T18:38:16;100473.33;;;14.25;37.44
51526;BME280;37611;51.794;21.590;2023-05-11T18:42:17;100473.21;;;14.11;37.70
51526;BME280;37611;51.794;21.590;2023-05-11T18:46:19;100474.55;;;13.97;37.82
51526;BME280;37611;51.794;21.590;2023-05-11T18:50:21;100475.91;;;13.83;38.19
51526;BME280;37611;51.794;21.590;2023-05-11T18:54:23;100482.34;;;13.68;38.73
51526;BME280;37611;51.794;21.590;2023-05-11T18:58:25;100482.81;;;13.55;38.80
51526;BME280;37611;51.794;21.590;2023-05-11T19:02:27;100483.38;;;13.43;38.98
51526;BME280;37611;51.794;21.590;2023-05-11T19:06:30;100487.79;;;13.31;39.52
51526;BME280;37611;51.794;21.590;2023-05-11T19:10:32;100490.44;;;13.18;39.85
51526;BME280;37611;51.794;21.590;2023-05-11T19:14:33;100497.00;;;13.06;40.28
51526;BME280;37611;51.794;21.590;2023-05-11T19:18:35;100500.68;;;12.94;40.43
51526;BME280;37611;51.794;21.590;2023-05-11T19:22:37;100505.41;;;12.82;40.93
51526;BME280;37611;51.794;21.590;2023-05-11T19:26:39;100511.13;;;12.67;41.65
51526;BME280;37611;51.794;21.590;2023-05-11T19:30:41;100509.41;;;12.54;41.91
51526;BME280;37611;51.794;21.590;2023-05-11T19:34:43;100514.19;;;12.47;41.98
51526;BME280;37611;51.794;21.590;2023-05-11T19:38:45;100516.87;;;12.39;42.67
51526;BME280;37611;51.794;21.590;2023-05-11T19:42:47;100515.41;;;12.31;42.52
51526;BME280;37611;51.794;21.590;2023-05-11T19:46:48;100521.15;;;12.22;43.19
51526;BME280;37611;51.794;21.590;2023-05-11T19:50:50;100518.49;;;12.14;43.41
51526;BME280;37611;51.794;21.590;2023-05-11T19:54:52;100517.28;;;12.05;43.44
51526;BME280;37611;51.794;21.590;2023-05-11T19:58:53;100517.92;;;11.96;43.75
51526;BME280;37611;51.794;21.590;2023-05-11T20:02:55;100524.42;;;11.87;44.11
51526;BME280;37611;51.794;21.590;2023-05-11T20:06:57;100528.42;;;11.78;44.55
51526;BME280;37611;51.794;21.590;2023-05-11T20:10:59;100528.80;;;11.68;44.84
51526;BME280;37611;51.794;21.590;2023-05-11T20:15:01;100527.42;;;11.61;45.39
51526;BME280;37611;51.794;21.590;2023-05-11T20:19:03;100530.84;;;11.52;45.54
51526;BME280;37611;51.794;21.590;2023-05-11T20:23:05;100532.15;;;11.44;45.84
51526;BME280;37611;51.794;21.590;2023-05-11T20:27:07;100529.48;;;11.37;46.73
51526;BME280;37611;51.794;21.590;2023-05-11T20:31:11;100534.27;;;11.31;47.16
51526;BME280;37611;51.794;21.590;2023-05-11T20:35:13;100533.92;;;11.27;47.52
51526;BME280;37611;51.794;21.590;2023-05-11T20:39:15;100533.23;;;11.25;47.73
51526;BME280;37611;51.794;21.590;2023-05-11T20:43:17;100535.27;;;11.24;48.20
51526;BME280;37611;51.794;21.590;2023-05-11T20:47:19;100539.14;;;11.22;48.09
51526;BME280;37611;51.794;21.590;2023-05-11T20:51:21;100538.52;;;11.21;48.27
51526;BME280;37611;51.794;21.590;2023-05-11T20:55:23;100538.27;;;11.20;48.38
51526;BME280;37611;51.794;21.590;2023-05-11T20:59:25;100538.71;;;11.21;48.91
51526;BME280;37611;51.794;21.590;2023-05-11T21:03:29;100537.48;;;11.23;48.80
51526;BME280;37611;51.794;21.590;2023-05-11T21:07:31;100540.58;;;11.23;48.84
51526;BME280;37611;51.794;21.590;2023-05-11T21:11:33;100545.32;;;11.23;48.71
51526;BME280;37611;51.794;21.590;2023-05-11T21:15:35;100547.72;;;11.22;48.70
51526;BME280;37611;51.794;21.590;2023-05-11T21:19:36;100552.81;;;11.22;48.66
51526;BME280;37611;51.794;21.590;2023-05-11T21:23:38;100553.10;;;11.22;48.44
51526;BME280;37611;51.794;21.590;2023-05-11T21:27:40;100555.33;;;11.25;48.40
51526;BME280;37611;51.794;21.590;2023-05-11T21:31:42;100559.09;;;11.26;48.23
51526;BME280;37611;51.794;21.590;2023-05-11T21:35:44;100561.05;;;11.25;48.18